Pagrindinis puslapis
METAR-TAF:

METAR-TAF

Oro uostai :

Portage Glacier, Aliaska, Jungtinės Amerikos Valstijos

platuma: 60-47N, ilguma: 148-50W, Aukštis: 29 m

Dabartinis oras

Ataskaita buvo paskelbta 25 minutes, ne 21:53 UTC
Vėjas 9 kt iš Vakarų su gūsio iki 17 kt
Temperatūra 10°C
Drėgmė 76%
Slėgis 996 hPa
Matomumas: 16.1 km
Apsiniaukę ne aukštis 3900 ft

METAR: PATO 212153Z AUTO 27009G17KT 10SM OVC039 10/06 A2940 RMK AO2 SLP956 T01000056 TSNO

Laikas: 14:18 (22:18 UTC)


TAF: trūkstamas

Orai ataskaitas ir orų prognozės (METAR, TAF).

turimą stotys yra geltonos ir raudonos taškus žemėlapyje.

Perkelti pele per norėdami pamatyti stoties vardą.

Tada spustelėkite, norėdami matyti oro stebėjimo ir prognozės.

Norėdami pakeisti žemėlapį: spustelėkite ant žalios mygtukų su juodo kryžiaus žemyn,; žalią mygtuką su brūkšneliu, jei norite nutolinti; arba žalių rodyklių gretimoms žemėlapius.


METAR-TAF: